Airfield :
LOGIN :

Register | Disclaimer

   EN    FR    IT 

 










Legend :    VFR   Marginal VFR   IFR   Intensive IFR   Very Intensive IFR
Visi :
Ceiling :
>= 8 km
>= 3000ft
5 to 8 km
1000 to 3000 ft
1500m to 5 km
500 to 1000 ft
800 to 1500m
200 to 500 ft
< 800m
< 200 ft
Symbols :   Thunderstorms  Fog  Heavy snow  Heavy precipitations  Wind > 20 kt
SIGMETs :     Misc.  Thunderstorms  Icing  Turbulence  Mountain Waves  Volcanic Ashes







- Airport Elevation : 3006 ft
- IATA code : LEN


LELN - Leon

CURRENT METAR :
  • 190800Z VRB02KT 9999 OVC009 01/01 Q1020

EXPIRED METARs :
  • 190730Z 35002KT 9999 BKN008 02/02 Q1019
  • 190700Z VRB01KT 9999 OVC009 01/01 Q1019
  • 190630Z AUTO 34003KT 9999 OVC009/// 01/01 Q1019
  • 190600Z AUTO VRB02KT 9999 OVC011/// 01/01 Q1019
  • 190530Z AUTO 34005KT 9000 BKN015/// 00/00 Q1019

TAF TAF LELN
Valid from the 19 at 06:00 until the 19 at 15:00 UTC


190500Z 1906/1915 VRB05KT 9999 BKN030
PROB40
TEMPO 1906/1910 BKN006
No reported NOTAMs for that airfield.
2 SIGMETs reported for the Madrid FIR (LECM) :
 
Severe turbulence
LECM SIGMET 2 VALID 190800/191200 LEVA
LECM MADRID FIR/UIR SEV TURB FCST WI N4414 W00342 - N3710 W00740 - N3556 W00727 - N3553 W00620 - N4258 W00119 - N4414 W00342 FL180/300 MOV E 5KT NC=
Severe turbulence
LECM SIGMET 1 VALID 190400/190800 LEVA
LECM MADRID FIR/UIR SEV TURB FCST WI N4410 W00339 - N4002 W00653 - N3708 W00723 - N3626 W00625 - N4326 W00143 - N4410 W00339 FL180/300 MOV E 20KT NC=



MET'MAP, your aeronautical weather chart ! - Copyright ORBIFLY December 2007 - Disclaimer

ORBIFLY MET'MAP TEAM :

Programming & Development : Alexandra Zaïnal
Concept & Development : Baudouin d'Aumeries
Co-Development & Prog : Marc-Olivier Méhu
Technical & hardware support : Manuel Goepfert

Contact : metmap@orbifly.com




SOURCES & CREDITS :

   NOAA